Sven Barthel
                 
   HOME  |  LAUFTAGEBUCH  |  WETTKÄMPFE           
                 

 

Harzquerung 49,78 km vom 27.04.2019

zurück

  Multi-Asset Forex Fond

2019 Performance
01/19: 1,20% | 02/19: 1,65%
03/19: 3,30% | 04/19: 2,1%
2018 Performance: 34,15%
01/18: 1,35% | 02/18: 0,90%
03/18: 4,95% | 04/18: 3,30%
05/18: 3,50% | 06/18: 4,05%
07/18: 3,15% | 08/18: 2,95%
09/18: 1,65% | 10/18: 3,55%
11/18: 3,25% | 12/18: 1,55%

Hier klicken um meinen Erfahrungsbericht zu lesen!



Datum Einheit Distanz Zeit Tempo HF Höhe Änd.
Samstag
27.04.2019
Harzquerung 49,78 km 49,78 km 4h56min48s 5min58s/km 141 (72%) +1421m/-1512m


Notiz



Nach meinem ersten Ultramarathon im Januar in Rodgau stand bei der Harzquerung zwar eine ähnliche Distanz an, allerdings mit einem bergigen Streckenprofil und einen doch ordentlichen Trailanteil. Mein Ziel war es einfach nur diese anspruchsvolle Strecke zu meistern. Mein Tag begann sehr früh. Gegen 3 Uhr startete ich in Plauen. Vor dem Start traf ich als erstes Totti und wir kamen ordentlich ins plaudern. Dann entdeckte ich überraschenderweise noch den Rumlaeufer Eckhard, welchen ich bisher nur virtuell kannte. Es freute mich sehr, dass er sein gesundheitlichen Probleme überwunden hat und jetzt schon wieder laufmäßig gut unterwegs ist. Dann kam noch "Mr. Spartathlon" Maik hinzu, welchen ich jetzt auch endlich mal persönlich kennenlernen konnte.

Jetzt aber zum Wettkampf. Das Wetter war optimal. Nicht zu warm und nicht zu kalt. Am Anfang hieß es gleich einige Höhenmeter aufwärts zu überwinden. Ich machte mir keinen Stress und kam recht gut in den Lauf rein. Die Wege sind zumeist alles andere als Waldautobahnen. Man muss stets sehr konzentriert sein wo man hintritt, was mit zunehmender Ermüdung nicht einfach ist. Bei den steileren Bergab Passagen wurde ich zumeist überholt, da ich doch sehr vorsichtig agierte. Bergauf machte ich dies meist wieder wett. Bei steileren Stücken wechselte ich häufig vom Laufen ins zügige Gehen. Nach ca. 34,5 km stand dann der ca. 3,5 km Anstieg zum höchsten Punkte, dem Poppenberg an. Dieser zog dann die restliche Kraft aus den Beinen und ich war froh, dass es jetzt bis Nordhausen überwiegend abwärts gehen sollte. Trotzdem waren dann immer wieder giftige Steigungen dabei und es wurde immer schwieriger die Konzentration hoch zu halten. Ich sehnte mich dann doch dem Ziel entgegen und freute mich als wir ins Stadion abbogen und nur noch die Zielgerade zu bewältigen war. Hier bekam ich von Maik noch einige Anfeuerungsrufe. Ich war im Ziel und vergaß gleich mal die Uhr abzudrücken. Aber egal, ich hab auch die Herausforderung Harzquerung geschafft und ein großes Glücksgefühl machte sich breit.

Dann gab es noch einige Fachsimpeleien im Zielbereich, vor allem wieder mit Maik und Totti bevor es mit den Shuttle-Bus zurück nach Wernigerode ging und von dort aus direkt wieder nach Plauen. Als ich dann gegen 20 Uhr wieder eintrudelte machte sich der lange Tag dann doch so langsam bemerkbar und das Bett hatte eine magische Anziehungskraft (-:

Zeit: 4h56min48s
Gesamt: 49 von 523
Gesamt Männer: 46 von 386
Gesamt Männer AK40: 8 von 40














Details



# Distanz Zeit R.-Dist. R.-Zeit R.-Pace Ø HF max. HF HM
1. 5,00 km 33:13 5,00 km 33:13 6:39/km 70 % 80 % +266/-68
2. 10,00 km 59:51 5,00 km 26:38 5:20/km 75 % 82 % +138/-98
3. 15,00 km 1:25:45 5,00 km 25:54 5:11/km 71 % 83 % +71/-127
4. 20,00 km 1:53:50 5,00 km 28:05 5:37/km 74 % 82 % +148/-84
5. 25,00 km 2:20:23 5,00 km 26:33 5:19/km 72 % 82 % +64/-114
6. 30,02 km 2:55:45 5,01 km 35:22 7:03/km 72 % 82 % +195/-144
7. 35,00 km 3:24:42 4,98 km 28:57 5:48/km 70 % 82 % +163/-275
8. 40,00 km 3:59:38 5,00 km 34:56 6:59/km 72 % 84 % +231/-247
9. 45,00 km 4:29:40 5,00 km 30:02 6:00/km 71 % 81 % +77/-187
10. 49,81 km 4:57:44 4,80 km 28:04 5:51/km 73 % 87 % +63/-163

# Distanz Zeit R.-Dist. R.-Pace Ø HF max. HF HM
1. 1,00 km 6:56 1,00 km 6:56/km 65 % 76 % +96/-0
2. 2,00 km 14:24 1,00 km 7:27/km 72 % 78 % +49/-6
3. 3,00 km 21:40 1,00 km 7:16/km 72 % 79 % +62/-8
4. 4,01 km 28:07 1,01 km 6:23/km 72 % 80 % +39/-9
5. 5,00 km 33:13 0,99 km 5:09/km 69 % 79 % +8/-45
6. 6,02 km 38:49 1,02 km 5:31/km 73 % 82 % +47/-30
7. 7,02 km 43:43 1,00 km 4:54/km 74 % 79 % +21/-17
8. 8,00 km 49:34 0,99 km 5:55/km 78 % 81 % +58/-7
9. 9,00 km 55:07 1,00 km 5:33/km 79 % 82 % +15/-10
10. 10,00 km 59:51 1,00 km 4:45/km 70 % 74 % +0/-31
11. 11,00 km 1:04:24 1,00 km 4:32/km 69 % 72 % +0/-36
12. 12,02 km 1:09:26 1,01 km 4:59/km 69 % 73 % +5/-17
13. 13,01 km 1:15:11 0,99 km 5:48/km 74 % 83 % +39/-35
14. 14,00 km 1:21:09 1,00 km 5:59/km 73 % 77 % +21/-12
15. 15,00 km 1:25:45 1,00 km 4:37/km 68 % 74 % +5/-26
16. 16,01 km 1:31:09 1,01 km 5:22/km 73 % 82 % +9/-7
17. 17,01 km 1:36:32 1,00 km 5:22/km 76 % 80 % +29/-9
18. 18,00 km 1:41:28 0,99 km 4:59/km 70 % 72 % +0/-31
19. 19,00 km 1:48:18 1,00 km 6:50/km 74 % 82 % +78/-23
20. 20,00 km 1:53:50 1,00 km 5:32/km 76 % 79 % +32/-13
21. 21,02 km 1:59:08 1,01 km 5:13/km 72 % 76 % +8/-11
22. 22,00 km 2:04:29 0,99 km 5:25/km 71 % 77 % +19/-21
23. 23,00 km 2:09:47 1,00 km 5:18/km 74 % 79 % +10/-24
24. 24,01 km 2:14:52 1,00 km 5:04/km 68 % 74 % +6/-56
25. 25,00 km 2:20:23 1,00 km 5:32/km 75 % 82 % +23/-4
26. 26,00 km 2:27:14 1,00 km 6:50/km 73 % 79 % +52/-7
27. 27,00 km 2:33:36 1,00 km 6:23/km 70 % 78 % +39/-29
28. 28,01 km 2:40:03 1,01 km 6:25/km 76 % 81 % +37/-13
29. 29,00 km 2:46:45 1,00 km 6:43/km 70 % 82 % +28/-66
30. 30,00 km 2:55:40 1,00 km 8:57/km 70 % 80 % +35/-23
31. 31,01 km 3:01:48 1,01 km 6:05/km 66 % 77 % +0/-38
32. 32,01 km 3:07:22 1,00 km 5:34/km 62 % 69 % +20/-109
33. 33,00 km 3:12:09 0,99 km 4:49/km 70 % 73 % +5/-76
34. 34,01 km 3:16:51 1,01 km 4:40/km 75 % 77 % +28/-41
35. 35,00 km 3:24:42 0,99 km 7:56/km 77 % 82 % +105/-12
36. 36,00 km 3:31:16 1,00 km 6:33/km 79 % 84 % +52/-22
37. 37,01 km 3:38:16 1,01 km 6:57/km 78 % 84 % +72/-29
38. 38,00 km 3:46:41 0,99 km 8:28/km 77 % 83 % +100/-0
39. 39,01 km 3:53:56 1,00 km 7:14/km 64 % 73 % +11/-86
40. 40,00 km 3:59:38 0,99 km 5:44/km 63 % 70 % +0/-114
41. 41,01 km 4:05:12 1,01 km 5:31/km 69 % 76 % +0/-72
42. 42,01 km 4:10:12 1,00 km 5:00/km 70 % 76 % +4/-44
43. 43,00 km 4:15:19 0,99 km 5:09/km 73 % 76 % +0/-37
44. 44,01 km 4:22:30 1,01 km 7:06/km 69 % 76 % +21/-31
45. 45,00 km 4:29:40 0,99 km 7:15/km 75 % 81 % +54/-5
46. 46,00 km 4:35:06 1,00 km 5:26/km 70 % 79 % +4/-45
47. 47,01 km 4:41:47 1,01 km 6:37/km 72 % 79 % +20/-23
48. 48,01 km 4:48:28 1,00 km 6:41/km 73 % 78 % +36/-34
49. 49,00 km 4:53:26 0,99 km 5:00/km 73 % 79 % +0/-43
50. 49,81 km 4:57:44 0,80 km 5:21/km 80 % 87 % +0/-18



  Multi-Asset Forex Fond

2019 Performance
01/19: 1,20% | 02/19: 1,65%
03/19: 3,30% | 04/19: 2,1%
2018 Performance: 34,15%
01/18: 1,35% | 02/18: 0,90%
03/18: 4,95% | 04/18: 3,30%
05/18: 3,50% | 06/18: 4,05%
07/18: 3,15% | 08/18: 2,95%
09/18: 1,65% | 10/18: 3,55%
11/18: 3,25% | 12/18: 1,55%

Hier klicken um meinen Erfahrungsbericht zu lesen!
 
 
 
Sven Barthel
 

 
Sven Barthel
 

 
Sven Barthel
 

 
Sven Barthel
 

 
Sven Barthel
 

 
Sven Barthel
 

 
Sven Barthel
 
Home   Lauftagebuch   Wettkämpfe   Impressum   Datenschutzerklärung